createdAt,value
2022-10-09T00:00:50.091Z,101482.03
2022-10-09T00:03:17.877Z,101488.38
2022-10-09T00:05:45.392Z,101480.28
2022-10-09T00:08:11.891Z,101480.03
2022-10-09T00:10:42.942Z,101485.06
2022-10-09T00:13:09.596Z,101479.38
2022-10-09T00:15:40.438Z,101484.56
2022-10-09T00:18:08.017Z,101482.44
2022-10-09T00:20:39.508Z,101489.44
2022-10-09T00:23:06.890Z,101484.44
2022-10-09T00:25:34.279Z,101493.06
2022-10-09T00:28:00.695Z,101488.28
2022-10-09T00:30:27.909Z,101498.41
2022-10-09T00:32:54.896Z,101493.81
2022-10-09T00:35:22.366Z,101491.50
2022-10-09T00:37:48.919Z,101497.28
2022-10-09T00:40:16.387Z,101495.59
2022-10-09T00:42:45.710Z,101495.38
2022-10-09T00:45:21.387Z,101499.34
2022-10-09T00:47:54.388Z,101498.22
2022-10-09T00:50:28.327Z,101492.44
2022-10-09T00:52:58.962Z,101498.38
2022-10-09T00:55:27.663Z,101500.19
2022-10-09T00:57:56.081Z,101508.44
2022-10-09T01:00:22.975Z,101506.31
2022-10-09T01:02:49.685Z,101503.16
2022-10-09T01:05:16.499Z,101507.06
2022-10-09T01:08:10.360Z,101504.34
2022-10-09T01:10:45.326Z,101510.81
2022-10-09T01:13:18.176Z,101508.22
2022-10-09T01:15:48.844Z,101510.91
2022-10-09T01:18:24.352Z,101513.94
2022-10-09T01:20:56.693Z,101510.16
2022-10-09T01:23:55.668Z,101513.59
2022-10-09T01:26:52.952Z,101514.72
2022-10-09T01:29:24.216Z,101516.63
2022-10-09T01:31:52.192Z,101507.00
2022-10-09T01:34:20.477Z,101512.09
2022-10-09T01:36:47.540Z,101520.53
2022-10-09T01:39:18.110Z,101518.69
2022-10-09T01:41:46.540Z,101517.97
2022-10-09T01:44:24.800Z,101520.91
2022-10-09T01:46:51.696Z,101506.13
2022-10-09T01:49:26.941Z,101506.97
2022-10-09T01:52:02.685Z,101513.34
2022-10-09T01:54:49.937Z,101516.69
2022-10-09T01:57:29.017Z,101514.09
2022-10-09T01:59:57.926Z,101516.06
2022-10-09T02:02:25.418Z,101512.09
2022-10-09T02:04:52.723Z,101509.75
2022-10-09T02:07:19.597Z,101513.63
2022-10-09T02:09:46.609Z,101505.97
2022-10-09T02:12:15.208Z,101504.31
2022-10-09T02:14:41.657Z,101503.00
2022-10-09T02:17:18.202Z,101506.63
2022-10-09T02:19:50.796Z,101509.84
2022-10-09T02:22:21.647Z,101511.44
2022-10-09T02:24:48.685Z,101505.78
2022-10-09T02:27:16.626Z,101507.84
2022-10-09T02:29:45.420Z,101504.50
2022-10-09T02:32:12.477Z,101510.25
2022-10-09T02:34:39.009Z,101505.22
2022-10-09T02:37:05.950Z,101506.44
2022-10-09T02:39:32.470Z,101517.53
2022-10-09T02:41:58.917Z,101516.03
2022-10-09T02:44:25.545Z,101516.22
2022-10-09T02:46:52.041Z,101523.59
2022-10-09T02:49:18.897Z,101519.44
2022-10-09T02:51:45.380Z,101516.13
2022-10-09T02:54:12.041Z,101514.47
2022-10-09T02:56:39.211Z,101517.31
2022-10-09T02:59:05.950Z,101519.53
2022-10-09T03:01:32.523Z,101519.72
2022-10-09T03:03:59.242Z,101521.59
2022-10-09T03:06:27.222Z,101515.56
2022-10-09T03:08:54.553Z,101515.94
2022-10-09T03:11:23.335Z,101508.53
2022-10-09T03:13:50.406Z,101508.09
2022-10-09T03:16:19.554Z,101514.25
2022-10-09T03:18:46.754Z,101513.63
2022-10-09T03:21:19.058Z,101512.59
2022-10-09T03:23:45.533Z,101523.69
2022-10-09T03:26:18.267Z,101513.44
2022-10-09T03:28:50.074Z,101519.50
2022-10-09T03:31:39.615Z,101517.03
2022-10-09T03:34:05.114Z,101517.41
2022-10-09T03:36:31.628Z,101522.09
2022-10-09T03:38:58.035Z,101526.97
2022-10-09T03:41:24.454Z,101522.81
2022-10-09T03:43:50.951Z,101533.84
2022-10-09T03:46:17.434Z,101529.88
2022-10-09T03:48:43.963Z,101538.28
2022-10-09T03:51:10.384Z,101540.28
2022-10-09T03:53:37.051Z,101544.16
2022-10-09T03:56:03.598Z,101540.00
2022-10-09T03:58:30.073Z,101541.19
2022-10-09T04:00:56.721Z,101544.03
2022-10-09T04:03:23.551Z,101540.72
2022-10-09T04:05:49.944Z,101544.53
2022-10-09T04:08:16.407Z,101549.59
2022-10-09T04:10:42.832Z,101545.41
2022-10-09T04:13:09.317Z,101550.13
2022-10-09T04:15:36.709Z,101560.19
